Trat Airport
VTBO : now visible

Airfield :











YOU CAN JOIN US ON...

 
LOGIN :

Register | Disclaimer

   EN    FR    IT 

 









Legend :    VFR   Marginal VFR   IFR   Intensive IFR   Very Intensive IFR
Visi :
Ceiling :
>= 8 km
>= 3000ft
5 to 8 km
1000 to 3000 ft
1500m to 5 km
500 to 1000 ft
800 to 1500m
200 to 500 ft
< 800m
< 200 ft
Symbols :   Thunderstorms  Fog  Heavy snow  Heavy precipitations  Wind > 20 kt






- Airport Elevation : 105 ft


VTBO - Trat

CURRENT METAR :
  • 060900Z 17003KT 9000 -RA FEW018CB SCT020 BKN100 26/24 Q1006

EXPIRED METARs :
  • 060800Z 18007KT 8000 -RA FEW018CB SCT020 BKN100 25/25 Q1007 RERA
  • 060700Z VRB02KT 3000 RA FEW018CB BKN020 OVC100 26/25 Q1008
  • 060600Z 26004KT 7000 VCSH FEW018CB BKN020 OVC100 26/25 Q1008

TAF TAF VTBO
Valid from the 06 at 06:00 until the 07 at 06:00 UTC


060500Z 0606/0706 21008KT 9999 SCT020 BKN100
TEMPO 0606/0612 20010G25KT 4000 TSRA FEW018CB SCT030 BKN100
TEMPO 0618/0624 24010G25KT 4000 TSRA FEW018CB SCT030 BKN100
VTBB FIR / Asia



MET'MAP, your aeronautical weather chart ! - Copyright ORBIFLY December 2007 - Disclaimer

ORBIFLY MET'MAP TEAM :

Programming & Development : Alexandra Zaïnal
Concept & original design : Baudouin d'Aumeries
Assistance for programming : Marc-Olivier Méhu
Technical & hardware support : Manuel Goepfert

Contact : metmap@orbifly.com




SOURCES & CREDITS :

   NOAA       Earth
Advisory